AirNav   Air Wisconsin pilot careers
 
 1329 users online  

80OI Cleveland Clinic South Pointe Heliport
Northfield, Ohio, USA

GOING TO NORTHFIELD?


FAA INFORMATION EFFECTIVE 29 MARCH 2018

Location

FAA Identifier: 80OI
Lat/Long: 41-18-58.6700N / 081-34-07.8800W
41-18.977833N / 081-34.131333W
41.3162972 / -81.5688556
(estimated)
Elevation: 868 ft. / 265 m (estimated)
Variation: 06W (1985)
From city: 2 miles E of NORTHFIELD, OH
Time zone: UTC -4 (UTC -5 during Standard Time)
Zip code: 44067

Heliport Operations

Heliport use: Private use, MEDICAL USE.
Activation date: 07/1987
Control tower: no
ARTCC: CLEVELAND CENTER
FSS: CLEVELAND FLIGHT SERVICE STATION
Attendance: CONTINUOUS
Wind indicator: yes
Segmented circle: yes

Heliport Communications

WX ASOS at BKL (13 nm NW): 125.25 (216-241-6904)
WX ASOS at CLE (14 nm NW): PHONE 216-267-9955
WX AWOS-3 at POV (16 nm SE): 118.675 (330-298-9353)
WX ASOS at AKR (17 nm S): 126.825 (330-724-4237)

Nearby radio navigation aids

VOR radial/distance  VOR name  Freq  Var
ACOr311/20.8AKRON VOR/DME114.4004W
CXRr242/21.9CHARDON VOR/DME112.7005W
DJBr100/26.8DRYER VOR/DME113.6005W
BSVr354/35.1BRIGGS VOR/DME112.4004W

 
NDB name  Hdg/Dist  Freq  Var  ID
LAKELAND209/23.626308WLQL .-.. --.- .-..

Heliport Services

Runway Information

Helipad H1

Dimensions: 60 x 60 ft. / 18 x 18 m
Surface: asphalt
Latitude: 41-18.977833N
Longitude: 081-34.131333W
Elevation: 868.0 ft.
Traffic pattern: leftleft

Heliport Ownership and Management from official FAA records

Ownership: Privately-owned
Owner: BRENTWOOD HOSPITAL
4110 WARRENSVILLE CENTER RD
WARRENSVILLE HTS, OH 44122
Phone 216-283-2900
Manager: LISA FEICHT
9500 EUCLID AVE
CLEVELAND, OH 44195
Phone (216) 445-0301

Additional Remarks

A52-H1 +80' HI TENSION TWRS 1000' E.

Instrument Procedures

There are no published instrument procedures at 80OI.

Some nearby airports with instrument procedures:

1G3 - Kent State University Airport (12 nm SE)
KBKL - Burke Lakefront Airport (13 nm NW)
KCLE - Cleveland-Hopkins International Airport (14 nm NW)
1G5 - Medina Municipal Airport (14 nm SW)
KCGF - Cuyahoga County Airport (15 nm N)
KPOV - Portage County Airport (16 nm SE)
KAKR - Akron Fulton International Airport (17 nm S)
 
Loc | Ops | Rwys | IFR | FBO | Links
Com | Nav | Svcs | Stats | Notes

AirNav Hotels Sweepstakes
 
Area around 80OI (Cleveland Clinic South Pointe Heliport)
 
Road maps at: MapQuest Bing Google
 
Aerial photo
No photo
 
Sectional chart

 
Airport distance calculator
Flying to Cleveland Clinic South Pointe Heliport? Find the distance to fly.

From to 80OI

Sunrise and sunset
Times for 20-Apr-2018
 Local
(UTC-4)
 Zulu
(UTC)
Morning civil twilight06:1110:11
Sunrise06:4010:40
Sunset20:1000:10
Evening civil twilight20:3900:39

Current date and time
Zulu (UTC)  20-Apr-2018 13:45:51
Local (UTC-4)  20-Apr-2018 09:45:51
 
METAR
KBKL 
14nm N 
201253Z 32013KT 10SM CLR 04/M02 A3043 RMK AO2 SLP309 T00391017
KCLE 
14nm NW 
201251Z 33010KT 10SM CLR 04/M02 A3046 RMK AO2 SLP320 T00441022
KPOV 
16nm SE 
201336Z AUTO 32008KT 10SM 04/M03 A3042 RMK AO2 T00351035
KCGF 
16nm N 
201245Z 36012KT 20SM SKC 04/M01 A3042
KAKR 
18nm S 
201254Z AUTO 33008KT 10SM CLR 04/M02 A3041 RMK AO2 SLP304 T00391022
KLNN 
23nm NE 
201335Z AUTO 01011KT 10SM CLR 04/M02 A3044 RMK AO1 T00351025
KCAK 
25nm S 
201251Z 32008KT 10SM CLR 03/M02 A3040 RMK AO2 SLP305 T00331022
TAF
KCLE 
14nm NW 
201123Z 2012/2118 32007KT P6SM SKC FM210500 00000KT P6SM SKC FM211200 VRB03KT P6SM SCT200
NOTAMs
Click for the latest NOTAMs
NOTAMs are issued by the DoD/FAA and will open in a separate window not controlled by AirNav.

 

 
 

Would you like to see your business listed on this page?

 If your business provides an interesting product or service to pilots, flight crews, aircraft, or users of the Cleveland Clinic South Pointe Heliport, you should consider listing it here.  To start the listing process, click on the button below
 
Add a business
 

Other Pages about Cleveland Clinic South Pointe Heliport

Update a link
 
Copyright © AirNav, LLC. All rights reserved. Privacy Policy  Contact